Lulu Pass Weather Station

This weather station provides temperature, relative humidity (RH), wind speed, gust or max wind speed, and wind direction at 10014ft near Lulu Pass at the head of Fisher Creek. This data can be used with temperature and precipitation data from the Fisher Creek SNOTEL site.

This weather station was purchased by the Friends of the Avalanche Center.

If the data has not been updated recently you can view it directly on datagarrison.com

Elevation
10014ft
Jump to table bottom
Date Time Temperature
deg F
RH, % Wind Speed Wind Gust Wind Direction
01/17/21 08:00 10.8 93 11 18 N - 340
01/17/21 07:00 9.9 93 10 14 NW - 331
01/17/21 06:00 10.2 93 9 14 NW - 310
01/17/21 05:00 10.3 93 13 20 N - 344
01/17/21 04:00 10.9 93 13 21 N - 341
01/17/21 03:00 11.0 93 13 19 NW - 321
01/17/21 02:00 10.4 93 13 19 NW - 314
01/17/21 01:00 10.0 93 10 18 NW - 309
01/17/21 00:00 9.7 93 14 20 N - 347
01/16/21 23:00 10.0 93 12 19 N - 358
01/16/21 22:00 9.7 93 10 17 NW - 320
01/16/21 21:00 9.8 93 11 17 NW - 313
01/16/21 20:00 9.9 93 11 15 NW - 319
01/16/21 19:00 10.1 93 13 20 N - 344
01/16/21 18:00 10.7 93 19 27 NW - 326
01/16/21 17:00 12.1 94 19 26 NW - 324
01/16/21 16:00 13.1 94 17 24 NW - 310
01/16/21 15:00 14.0 94 18 27 NW - 327
01/16/21 14:00 13.1 94 19 25 NW - 329
01/16/21 13:00 12.3 93 15 20 NW - 321
01/16/21 12:00 12.1 93 15 19 NW - 323
01/16/21 11:00 11.8 93 12 17 NW - 329
01/16/21 10:00 11.6 93 7 13 NW - 298
01/16/21 09:00 11.6 93 5 13 W - 254
01/16/21 08:00 11.9 93 6 14 SW - 247
01/16/21 07:00 12.5 94 7 13 SW - 237
01/16/21 06:00 13.2 94 7 15 W - 274
01/16/21 05:00 13.0 93 10 15 NW - 302
01/16/21 04:00 13.3 94 10 17 NW - 313
01/16/21 03:00 13.6 94 12 17 NW - 324
01/16/21 02:00 13.7 94 15 22 NW - 334
01/16/21 01:00 13.8 94 14 21 NW - 326
01/16/21 00:00 13.4 93 7 13 NW - 300
01/15/21 23:00 14.0 94 5 13 N - 0
01/15/21 22:00 13.4 93 12 21 NW - 330
01/15/21 21:00 13.8 93 8 20 NW - 298
01/15/21 20:00 14.0 93 10 17 NW - 323
01/15/21 19:00 14.6 93 10 15 N - 343
01/15/21 18:00 14.8 85 8 17 NW - 333
01/15/21 17:00 15.2 80 6 12 N - 343
01/15/21 16:00 15.5 79 9 14 NW - 324
01/15/21 15:00 17.5 75 10 16 NW - 324
01/15/21 14:00 16.3 76 16 22 NW - 319
01/15/21 13:00 13.4 77 19 24 NW - 323
01/15/21 12:00 12.6 78 18 25 N - 338
01/15/21 11:00 11.4 77 17 22 NW - 333
01/15/21 10:00 9.0 79 17 26 N - 343
01/15/21 09:00 11.1 79 16 21 N - 341
01/15/21 08:00 10.3 78 17 21 NW - 334
01/15/21 07:00 9.8 75 20 26 NW - 327